• Join FlightAware (Why Join?)
  • Login
  • US Flag 
08:50PM EDT


 

Airport Tracker/Info


-or-


 

Live Flight TrackerFlight Track Log ✈ N56765 ✈ 29-Jul-2013 ✈ KOMN - KCNI

Flight Track Log - Related Links

Times and Time Zones

All times are in EDT time to prevent confusion due to time zone crossing. See the N56765 flight status page for this flight to view local times or setup timezone preferences in your user account.

Time Position Orientation Groundspeed Altitude Reporting Facility
EDT Latitude Longitude Course Direction KTS MPH feet Rate Location/Type
12:36PM 30.3342 -82.3150 332° Northwest 127 146 2,600  Level Jacksonville Center
12:37PM 30.3675 -82.3292 340° North 127 146 2,500 -60 Descending Jacksonville Center
12:38PM 30.4031 -82.3411 344° North 127 146 2,500  Level Jacksonville Center
12:39PM 30.4386 -82.3456 354° North 127 146 2,500  Level Jacksonville Center
12:40PM 30.4722 -82.3550 346° North 127 146 2,600 60 Climbing Jacksonville Center
12:41PM 30.7919 -82.0555 332° Northwest  Level Estimated
12:41PM 30.5075 -82.3622 350° North 127 146 2,700  Level Jacksonville Center
12:42PM 30.5411 -82.3692 350° North 127 146 2,700  Level Jacksonville Center
12:43PM 30.5786 -82.3761 351° North 127 146 2,700 -60 Level Jacksonville Center
12:44PM 30.6142 -82.3856 347° North 127 146 2,600 -60 Descending Jacksonville Center
12:45PM 30.6497 -82.4000 341° North 127 146 2,600  Level Jacksonville Center
12:46PM 30.6853 -82.4119 344° North 127 146 2,600  Level Jacksonville Center
12:47PM 30.7186 -82.4239 343° North 127 146 2,600 -60 Level Jacksonville Center
12:48PM 30.7542 -82.4308 350° North 127 146 2,500 -60 Descending Jacksonville Center
12:49PM 30.7878 -82.4381 350° North 127 146 2,500 480 Level Jacksonville Center
12:50PM 30.8189 -82.4425 353° North 122 140 3,500 900 Climbing Jacksonville Center
12:51PM 30.8461 -82.4497 347° North 110 127 4,300 780 Climbing Jacksonville Center
12:52PM 30.8714 -82.4519 356° North 102 117 5,100 780 Climbing Jacksonville Center
12:53PM 30.9006 -82.4592 348° North 102 117 5,900 720 Climbing Jacksonville Center
12:54PM 30.9297 -82.4664 348° North 102 117 6,600 600 Climbing Jacksonville Center
12:55PM 30.9569 -82.4736 347° North 102 117 7,200 600 Climbing Jacksonville Center
12:56PM 30.9883 -82.4758 357° North 107 123 7,800 540 Climbing Jacksonville Center
12:57PM 31.0133 -82.4853 342° North 107 123 8,300 420 Climbing Jacksonville Center
12:58PM 31.0425 -82.4925 348° North 107 123 8,700 240 Climbing Jacksonville Center
12:59PM 31.0719 -82.5044 341° North 107 123 8,800 60 Climbing Jacksonville Center
01:00PM 31.1094 -82.5117 351° North 113 130 8,900 300 Climbing Jacksonville Center
01:01PM 31.1347 -82.5286 330° Northwest 113 130 9,400 480 Climbing Jacksonville Center
01:02PM 31.1617 -82.5406 339° North 107 123 9,900 420 Climbing Jacksonville Center
01:03PM 31.1869 -82.5478 346° North 102 117 10,300 300 Climbing Jacksonville Center
01:04PM 31.2139 -82.5525 351° North 97 112 10,600 180 Climbing Jacksonville Center
01:05PM 31.2411 -82.5694 332° Northwest 97 112 10,700  Climbing Jacksonville Center
01:06PM 31.2725 -82.5789 346° North 102 117 10,700  Level Jacksonville Center
01:07PM 31.3039 -82.5789 360° North 102 117 10,800  Climbing Jacksonville Center
01:08PM 31.3372 -82.5789 360° North 108 124 10,800  Level Jacksonville Center
01:09PM 31.3789 -82.5786 360° North 121 139 10,800  Level Jacksonville Center
01:10PM 31.4103 -82.5811 356° North 126 145 10,800  Level Jacksonville Center
01:11PM 31.4458 -82.5833 357° North 121 139 10,800  Level Jacksonville Center
01:12PM 31.4792 -82.5856 357° North 121 139 10,800  Level Jacksonville Center
01:13PM 31.5147 -82.5928 350° North 121 139 10,900  Climbing Jacksonville Center
01:14PM 31.5461 -82.6025 345° North 121 139 10,800 -60 Descending Jacksonville Center
01:15PM 31.5817 -82.6097 350° North 121 139 10,800  Level Jacksonville Center
01:16PM 31.6150 -82.6242 340° North 121 139 10,800  Level Jacksonville Center
01:17PM 31.6422 -82.6436 329° Northwest 121 139 10,800  Level Jacksonville Center
01:18PM 31.6736 -82.6631 332° Northwest 121 139 10,800  Level Jacksonville Center
01:19PM 31.6986 -82.6875 320° Northwest 121 139 10,800  Level Jacksonville Center
01:20PM 31.7258 -82.7094 326° Northwest 121 139 10,900 -60 Climbing Jacksonville Center
01:21PM 31.7531 -82.7361 320° Northwest 121 139 10,700 -180 Descending Jacksonville Center
01:22PM 31.7803 -82.7656 317° Northwest 126 145 10,600 -60 Descending Jacksonville Center
01:23PM 31.8033 -82.7922 315° West 126 145 10,600  Level Jacksonville Center
01:24PM 31.8303 -82.8167 322° Northwest 121 139 10,700  Climbing Jacksonville Center
01:25PM 31.8533 -82.8486 310° West 121 139 10,700  Level Jacksonville Center
01:26PM 31.8825 -82.8656 334° Northwest 121 139 10,800  Climbing Jacksonville Center
01:27PM 31.9097 -82.8853 328° Northwest 115 132 10,800  Level Jacksonville Center
01:28PM 31.9411 -82.9072 329° Northwest 120 138 10,900  Climbing Jacksonville Center
01:29PM 31.9661 -82.9294 323° Northwest 120 138 10,900  Level Jacksonville Center
01:30PM 31.9953 -82.9514 327° Northwest 120 138 10,900  Level Jacksonville Center
01:31PM 32.0225 -82.9733 326° Northwest 120 138 10,900  Level Jacksonville Center
01:32PM 32.0539 -82.9858 341° North 120 138 10,900  Level Jacksonville Center
01:33PM 32.0850 -83.0053 332° Northwest 120 138 10,900 -60 Level Jacksonville Center
01:35PM 32.1453 -83.0331 339° North 122 140 10,800 -120 Descending Atlanta Center
01:36PM 32.1808 -83.0497 338° Northwest 122 140 10,600 -60 Descending Atlanta Center
01:37PM 32.2144 -83.0594 346° North 128 147 10,700  Climbing Atlanta Center
01:38PM 32.2500 -83.0689 347° North 128 147 10,700  Level Atlanta Center
01:39PM 32.2856 -83.0733 354° North 128 147 10,700  Level Atlanta Center
01:40PM 32.3189 -83.0778 354° North 128 147 10,700  Level Atlanta Center
01:41PM 32.3522 -83.0800 357° North 122 140 10,800  Climbing Atlanta Center
01:42PM 32.3839 -83.0944 339° North 122 140 10,800  Level Atlanta Center
01:43PM 32.4089 -83.1139 327° Northwest 116 133 10,800  Level Atlanta Center
01:44PM 32.4364 -83.1381 323° Northwest 116 133 10,800  Level Atlanta Center
01:45PM 32.4594 -83.1625 318° Northwest 116 133 10,900  Climbing Atlanta Center
01:46PM 32.4847 -83.1844 324° Northwest 110 127 10,900  Level Atlanta Center
01:47PM 32.5119 -83.2014 332° Northwest 110 127 11,000  Climbing Atlanta Center
01:48PM 32.5331 -83.2308 310° West 110 127 11,000  Level Atlanta Center
01:49PM 32.5478 -83.2625 299° West 110 127 11,000 -60 Level Atlanta Center
01:50PM 32.5667 -83.2944 305° West 110 127 10,900 -60 Descending Atlanta Center
01:51PM 32.5897 -83.3189 318° Northwest 116 133 10,900 -60 Level Atlanta Center
01:52PM 32.6233 -83.3261 350° North 111 128 10,800 -120 Descending Atlanta Center
01:53PM 32.6589 -83.3331 351° North 117 135 10,700  Descending Atlanta Center
01:54PM 32.6922 -83.3281 North 123 142 10,800  Climbing Atlanta Center
01:55PM 32.7278 -83.3278 360° North 123 142 10,800 -60 Level Atlanta Center
01:56PM 32.7611 -83.3275 360° North 123 142 10,700 -60 Descending Atlanta Center
01:57PM 32.7944 -83.3319 354° North 118 136 10,700 -60 Level Atlanta Center
01:58PM 32.8278 -83.3417 346° North 118 136 10,600  Descending Atlanta Center
01:59PM 32.8531 -83.3539 338° Northwest 118 136 10,700  Climbing Atlanta Center
02:00PM 32.8803 -83.3711 332° Northwest 113 130 10,600 -60 Descending Atlanta Center
02:01PM 32.9094 -83.3881 334° Northwest 113 130 10,600  Level Atlanta Center
02:02PM 32.9408 -83.3878 360° North 113 130 10,600  Level Atlanta Center
02:03PM 32.9742 -83.3875 360° North 113 130 10,700  Climbing Atlanta Center
02:04PM 33.0078 -83.3947 350° North 113 130 10,600  Descending Atlanta Center
02:05PM 33.0411 -83.3994 353° North 113 130 10,700  Climbing Atlanta Center
02:06PM 33.0706 -83.4142 337° Northwest 113 130 10,600 -120 Descending Atlanta Center
02:07PM 33.1061 -83.4264 344° North 118 136 10,500 -360 Descending Atlanta Center
02:08PM 33.1333 -83.4533 320° Northwest 123 142 9,900 -720 Descending Atlanta Center
02:09PM 33.1647 -83.4806 324° Northwest 133 153 9,100 -900 Descending Atlanta Center
02:10PM 33.1942 -83.5125 318° Northwest 133 153 8,200 -1,020 Descending Atlanta Center
02:11PM 33.2233 -83.5347 327° Northwest 128 147 7,100 -1,140 Descending Atlanta Center
02:12PM 33.2547 -83.5519 335° Northwest 122 140 6,000 -1,200 Descending Atlanta Center
02:13PM 33.2819 -83.5742 326° Northwest 122 140 4,800 -1,200 Descending Atlanta Center
02:14PM 33.3050 -83.6039 313° West 122 140 3,600 -840 Descending Atlanta Center
02:15PM 33.3322 -83.6236 329° Northwest 117 135 3,200 -300 Descending Atlanta Center
02:16PM 33.3656 -83.6283 353° North 111 128 3,100 -120 Descending Atlanta Center
02:18PM 33.4333 -83.6500 345° North 126 145 3,000  Descending Atlanta TRACON
02:19PM 33.4667 -83.6667 337° Northwest 127 146 3,200 240 Climbing Atlanta TRACON
02:20PM 33.5000 -83.6833 337° Northwest 138 159 3,600 240 Climbing Atlanta TRACON
02:21PM 33.5333 -83.7000 337° Northwest 141 162 3,700  Climbing Atlanta TRACON
02:22PM 33.5667 -83.7167 337° Northwest 121 139 3,700  Level Atlanta TRACON
02:23PM 33.5833 -83.7333 320° Northwest 126 145 3,700 -60 Level Atlanta TRACON
02:24PM 33.6167 -83.7500 337° Northwest 125 144 3,600 -60 Descending Atlanta TRACON
02:25PM 33.6500 -83.7667 337° Northwest 123 142 3,600 120 Level Atlanta TRACON
02:26PM 33.6833 -83.7833 337° Northwest 121 139 3,900 240 Climbing Atlanta TRACON
02:27PM 33.7167 -83.8000 337° Northwest 120 138 4,100 240 Climbing Atlanta TRACON
02:28PM 33.7500 -83.8000 360° North 119 137 4,400 240 Climbing Atlanta TRACON
02:29PM 33.7833 -83.8167 337° Northwest 111 128 4,600 60 Climbing Atlanta TRACON
02:30PM 33.8000 -83.8333 320° Northwest 113 130 4,600  Level Atlanta TRACON
02:31PM 33.8333 -83.8333 360° North 110 127 4,600  Level Atlanta TRACON
02:32PM 33.8500 -83.8500 320° Northwest 111 128 4,600  Level Atlanta TRACON
02:33PM 33.8833 -83.8667 337° Northwest 107 123 4,700 120 Climbing Atlanta TRACON
02:34PM 33.9167 -83.8833 337° Northwest 115 132 4,900 60 Climbing Atlanta TRACON
02:35PM 33.9333 -83.9167 301° West 126 145 4,900  Level Atlanta TRACON
02:36PM 33.9500 -83.9500 301° West 120 138 4,900  Level Atlanta TRACON
02:37PM 33.9833 -83.9833 320° Northwest 118 136 4,900 -120 Level Atlanta TRACON
02:38PM 34.0000 -84.0000 320° Northwest 123 142 4,700 -120 Descending Atlanta TRACON
02:39PM 34.0333 -84.0333 320° Northwest 122 140 4,700 -60 Level Atlanta TRACON
02:40PM 34.0500 -84.0667 301° West 124 143 4,600 -120 Descending Atlanta TRACON
02:42PM 34.0897 -84.1220 311° West  Level FlightAware Approximate
02:49PM 34.2409 -84.3336 311° West  Level FlightAware Approximate
02:50PM 34.2625 -84.3639 311° West  Level FlightAware Approximate
02:51PM 34.2840 -84.3942 311° West  Level FlightAware Approximate
02:52PM 34.3000 -84.4167 North  Level FlightAware Approximate
02:53PM 34.3122 -84.4222 North  Level Estimated
02:54PM 34.3122 -84.4222 North  Level Estimated
02:55PM 34.3122 -84.4222 North  Level Estimated
02:56PM 34.3122 -84.4222 North  Level Estimated
02:57PM 34.3122 -84.4222 North  Level Estimated
02:58PM 34.3122 -84.4222 North  Level Estimated
02:59PM 34.3122 -84.4222 North  Level Estimated
03:00PM 34.3122 -84.4222 North  Level Estimated
03:01PM 34.3122 -84.4222 North  Level Estimated
03:02PM 34.3122 -84.4222 North  Level Estimated
03:03PM 34.3122 -84.4222 North  Level Estimated
03:04PM 34.3122 -84.4222 North  Level Estimated
03:05PM 34.3122 -84.4222 North  Level Estimated
03:06PM 34.3122 -84.4222 North  Level Estimated